Time;durP1;ratioP1;P1;durP2;ratioP2;P2;SDS_P1;SDS_P2;PMS_P1;PMS_P2;Temp;Humidity;BMP_temperature;BMP_pressure;BME280_temperature;BME280_humidity;BME280_pressure;Samples;Min_cycle;Max_cycle;Signal;HPM_P1;HPM_P2
2021/05/18 00:01:45;;;;;;;0.20;0.20;;;10.90;99.90;;;;;;1877604;76;21078;-76
2021/05/18 00:04:11;;;;;;;0.47;0.20;;;10.90;99.90;;;;;;1877808;76;21232;-76
2021/05/18 00:06:37;;;;;;;0.45;0.20;;;10.80;99.90;;;;;;1877678;76;21113;-76
2021/05/18 00:11:47;;;;;;;1.07;0.10;;;10.90;99.90;;;;;;1877483;76;21080;-74
2021/05/18 00:14:13;;;;;;;0.60;0.30;;;10.80;99.90;;;;;;1877778;76;21083;-74
2021/05/18 00:16:40;;;;;;;0.68;0.20;;;10.80;99.90;;;;;;1877682;76;21050;-74
2021/05/18 00:19:06;;;;;;;0.20;0.20;;;10.80;99.90;;;;;;1877729;76;21087;-74
2021/05/18 00:21:33;;;;;;;0.17;0.17;;;10.80;99.90;;;;;;1877801;76;21116;-74
2021/05/18 00:23:59;;;;;;;0.17;0.17;;;10.80;99.90;;;;;;1877620;76;21160;-75
2021/05/18 00:26:25;;;;;;;0.20;0.20;;;10.70;99.90;;;;;;1877807;76;21179;-74
2021/05/18 00:28:51;;;;;;;3.65;0.30;;;10.70;99.90;;;;;;1877607;76;21444;-75
2021/05/18 00:31:17;;;;;;;0.42;0.35;;;10.70;99.90;;;;;;1877832;76;21164;-74
2021/05/18 00:33:43;;;;;;;0.33;0.30;;;10.70;99.90;;;;;;1859411;76;21091;-74
2021/05/18 00:36:09;;;;;;;0.20;0.20;;;10.70;99.90;;;;;;1877789;76;21055;-74
2021/05/18 00:38:35;;;;;;;9.18;0.42;;;10.80;99.90;;;;;;1877694;76;21153;-74
2021/05/18 00:41:03;;;;;;;0.45;0.30;;;10.80;99.90;;;;;;1877662;76;21090;-74
2021/05/18 00:43:29;;;;;;;0.85;0.40;;;10.70;99.90;;;;;;1877578;76;21086;-74
2021/05/18 00:45:57;;;;;;;1.02;0.30;;;10.70;99.90;;;;;;1877850;76;21153;-75
2021/05/18 00:48:23;;;;;;;0.30;0.30;;;10.80;99.90;;;;;;1877634;76;21152;-74
2021/05/18 00:50:49;;;;;;;5.83;0.50;;;10.80;99.90;;;;;;1877775;76;21103;-75
2021/05/18 00:53:15;;;;;;;0.45;0.40;;;10.70;99.90;;;;;;1877819;76;21149;-75
2021/05/18 00:55:50;;;;;;;0.20;0.20;;;10.70;99.90;;;;;;1877886;76;21082;-74
2021/05/18 01:00:54;;;;;;;0.78;0.20;;;10.60;99.90;;;;;;1876546;76;21173;-75
2021/05/18 01:03:20;;;;;;;0.65;0.40;;;10.60;99.90;;;;;;1877685;76;21475;-75
2021/05/18 01:08:30;;;;;;;0.95;0.28;;;10.50;99.90;;;;;;1876443;76;21084;-75
2021/05/18 01:10:56;;;;;;;0.30;0.23;;;10.50;99.90;;;;;;1877693;76;21055;-75
2021/05/18 01:13:23;;;;;;;0.70;0.33;;;10.60;99.90;;;;;;1877736;76;21090;-75
2021/05/18 01:15:49;;;;;;;0.47;0.30;;;10.60;99.90;;;;;;1877742;76;21094;-75
2021/05/18 01:18:15;;;;;;;1.00;0.40;;;10.70;99.90;;;;;;1877760;76;21295;-75
2021/05/18 01:20:41;;;;;;;0.90;0.42;;;10.70;99.90;;;;;;1877855;76;21526;-75
2021/05/18 01:23:07;;;;;;;0.13;0.13;;;10.60;99.90;;;;;;1877686;76;21566;-75
2021/05/18 01:25:33;;;;;;;0.45;0.45;;;10.60;99.90;;;;;;1877659;76;21509;-75
2021/05/18 01:27:59;;;;;;;0.30;0.30;;;10.60;99.90;;;;;;1877618;76;21531;-74
2021/05/18 01:30:25;;;;;;;0.47;0.20;;;10.70;99.90;;;;;;1877698;76;21494;-74
2021/05/18 01:32:52;;;;;;;1.30;0.20;;;10.60;99.90;;;;;;1877613;76;21150;-74
2021/05/18 01:35:18;;;;;;;0.50;0.33;;;10.60;99.90;;;;;;1877757;76;21047;-75
2021/05/18 01:37:44;;;;;;;0.25;0.23;;;10.60;99.90;;;;;;1877753;76;21162;-75
2021/05/18 01:40:27;;;;;;;0.10;0.10;;;10.60;99.90;;;;;;1877639;76;21613;-75
2021/05/18 01:43:11;;;;;;;0.28;0.23;;;10.60;99.90;;;;;;1874725;76;21119;-75
2021/05/18 01:45:12;;;;;;;0.30;0.30;;;10.60;99.90;;;;;;1861690;76;21098;-75
2021/05/18 01:47:40;;;;;;;0.20;0.20;;;10.50;99.90;;;;;;1877651;76;21226;-75
2021/05/18 01:50:06;;;;;;;5.58;0.40;;;10.50;99.90;;;;;;1871605;76;21086;-75
2021/05/18 01:52:32;;;;;;;0.20;0.20;;;10.50;99.90;;;;;;1877670;76;21156;-75
2021/05/18 01:54:59;;;;;;;0.20;0.20;;;10.50;99.90;;;;;;1877701;76;21091;-74
2021/05/18 01:57:26;;;;;;;0.20;0.20;;;10.60;99.90;;;;;;1877604;76;21171;-74
2021/05/18 01:59:52;;;;;;;0.20;0.20;;;10.60;99.90;;;;;;1877727;76;21090;-75
2021/05/18 02:02:18;;;;;;;0.42;0.25;;;10.70;99.90;;;;;;1877534;76;21152;-74
2021/05/18 02:04:45;;;;;;;0.30;0.30;;;10.60;99.90;;;;;;1877693;76;21524;-74
2021/05/18 02:07:11;;;;;;;0.20;0.20;;;10.60;99.90;;;;;;1877509;76;21664;-74
2021/05/18 02:09:37;;;;;;;0.30;0.20;;;10.60;99.90;;;;;;1877680;76;21475;-74
2021/05/18 02:12:03;;;;;;;2.35;0.30;;;10.50;99.90;;;;;;1877492;76;21086;-74
2021/05/18 02:14:31;;;;;;;0.20;0.20;;;10.40;99.90;;;;;;1877688;76;21074;-74
2021/05/18 02:17:06;;;;;;;0.17;0.10;;;10.40;99.90;;;;;;1877508;76;21172;-74
2021/05/18 02:19:39;;;;;;;0.30;0.28;;;10.40;99.90;;;;;;1875858;76;21092;-75
2021/05/18 02:22:04;;;;;;;0.25;0.20;;;10.30;99.90;;;;;;1874667;76;21116;-74
2021/05/18 02:27:04;;;;;;;0.20;0.20;;;10.20;99.90;;;;;;1877351;76;21107;-74
2021/05/18 02:29:31;;;;;;;0.42;0.35;;;10.20;99.90;;;;;;1858484;77;21262;-74
2021/05/18 02:31:57;;;;;;;0.45;0.40;;;10.20;99.90;;;;;;1876139;76;21087;-73
2021/05/18 02:34:23;;;;;;;0.28;0.20;;;10.20;99.90;;;;;;1853145;76;21476;-75
2021/05/18 02:36:49;;;;;;;0.65;0.30;;;10.10;99.90;;;;;;1877660;76;21092;-74
2021/05/18 02:39:16;;;;;;;1.98;0.37;;;10.10;99.90;;;;;;1877451;76;21196;-74
2021/05/18 02:41:42;;;;;;;0.40;0.40;;;10.20;99.90;;;;;;1872435;76;21099;-74
2021/05/18 02:44:21;;;;;;;3.05;0.42;;;10.20;99.90;;;;;;1877620;76;21078;-74
2021/05/18 02:49:23;;;;;;;0.82;0.57;;;10.30;99.90;;;;;;1877633;76;20109;-74
2021/05/18 02:51:50;;;;;;;0.45;0.25;;;10.20;99.90;;;;;;1877847;76;21193;-74
2021/05/18 02:54:21;;;;;;;0.30;0.30;;;10.20;99.90;;;;;;1877630;76;21176;-74
2021/05/18 02:56:48;;;;;;;1.20;0.30;;;10.20;99.90;;;;;;1877295;76;21119;-74
2021/05/18 02:59:15;;;;;;;1.10;0.30;;;10.20;99.90;;;;;;1877254;76;21150;-75
2021/05/18 03:01:39;;;;;;;0.10;0.10;;;10.20;99.90;;;;;;1877368;76;21108;-74
2021/05/18 03:04:05;;;;;;;1.55;0.50;;;10.00;99.90;;;;;;1877736;76;21479;-74
2021/05/18 03:06:33;;;;;;;0.30;0.30;;;10.00;99.90;;;;;;1877713;76;21586;-75
2021/05/18 03:08:59;;;;;;;0.98;0.30;;;10.10;99.90;;;;;;1877622;76;21100;-74
2021/05/18 03:11:25;;;;;;;3.10;0.35;;;10.20;99.90;;;;;;1877789;76;21181;-75
2021/05/18 03:13:52;;;;;;;0.30;0.30;;;10.10;99.90;;;;;;1877573;76;21103;-74
2021/05/18 03:16:18;;;;;;;0.88;0.40;;;10.20;99.90;;;;;;1877781;76;21106;-75
2021/05/18 03:18:44;;;;;;;0.40;0.40;;;10.10;99.90;;;;;;1877629;76;21168;-75
2021/05/18 03:21:11;;;;;;;0.85;0.30;;;10.20;99.90;;;;;;1877705;76;21543;-75
2021/05/18 03:23:37;;;;;;;0.30;0.30;;;10.00;99.90;;;;;;1877595;76;21156;-75
2021/05/18 03:26:03;;;;;;;0.50;0.40;;;10.10;99.90;;;;;;1877741;76;21163;-75
2021/05/18 03:28:29;;;;;;;0.23;0.23;;;10.10;99.90;;;;;;1877625;76;21160;-75
2021/05/18 03:36:13;;;;;;;0.88;0.30;;;10.10;99.90;;;;;;1877959;76;21090;-74
2021/05/18 03:38:43;;;;;;;0.30;0.30;;;10.20;99.90;;;;;;1877620;76;21082;-74
2021/05/18 03:41:12;;;;;;;1.45;0.40;;;10.10;99.90;;;;;;1877452;76;21193;-75
2021/05/18 03:54:15;;;;;;;0.42;0.40;;;10.10;99.90;;;;;;1877249;76;21184;-74
2021/05/18 04:04:37;;;;;;;1.05;0.35;;;10.10;99.90;;;;;;1877111;76;21190;-74
2021/05/18 04:12:43;;;;;;;1.32;0.40;;;10.20;99.90;;;;;;1875240;76;21258;-74
2021/05/18 04:17:52;;;;;;;1.85;0.37;;;10.30;99.90;;;;;;1877653;76;21099;-74
2021/05/18 04:20:26;;;;;;;1.57;0.42;;;10.30;99.90;;;;;;1875954;76;21119;-74
2021/05/18 04:38:49;;;;;;;0.30;0.30;;;10.60;99.90;;;;;;1876807;76;21153;-74
2021/05/18 04:51:56;;;;;;;0.40;0.40;;;10.60;99.90;;;;;;1877249;76;21123;-75
2021/05/18 04:54:59;;;;;;;0.23;0.23;;;10.60;99.90;;;;;;1873464;74;21064;-75
2021/05/18 05:07:46;;;;;;;0.30;0.30;;;10.60;99.90;;;;;;1877332;76;21079;-74
2021/05/18 05:10:05;;;;;;;1.30;0.75;;;10.60;99.90;;;;;;1875883;75;21168;-76
2021/05/18 05:13:06;;;;;;;0.20;0.20;;;10.60;99.90;;;;;;1877421;76;21091;-75
2021/05/18 05:15:07;;;;;;;0.65;0.33;;;10.70;99.90;;;;;;1872666;74;21193;-75
2021/05/18 05:17:34;;;;;;;0.30;0.30;;;10.70;99.90;;;;;;1877364;76;21094;-76
2021/05/18 05:20:00;;;;;;;0.30;0.20;;;10.70;99.90;;;;;;1877551;76;21136;-76
2021/05/18 05:22:27;;;;;;;0.20;0.20;;;10.70;99.90;;;;;;1877507;76;21078;-75
2021/05/18 05:24:53;;;;;;;0.62;0.40;;;10.60;99.90;;;;;;1876253;76;21098;-76
2021/05/18 05:27:19;;;;;;;0.30;0.30;;;10.60;99.90;;;;;;1878029;76;21120;-76
2021/05/18 05:29:46;;;;;;;0.68;0.30;;;10.60;99.90;;;;;;1877927;76;21112;-76
2021/05/18 05:32:12;;;;;;;0.25;0.25;;;10.70;99.90;;;;;;1878049;76;21623;-75
2021/05/18 05:34:38;;;;;;;0.28;0.28;;;10.70;99.90;;;;;;1879848;75;21129;-75
2021/05/18 05:37:04;;;;;;;0.30;0.30;;;10.60;99.90;;;;;;1880539;76;21088;-76
2021/05/18 05:39:30;;;;;;;1.07;0.47;;;10.70;99.90;;;;;;1880939;76;21036;-76
2021/05/18 05:41:56;;;;;;;1.60;0.30;;;10.60;99.90;;;;;;1880822;76;21196;-76
2021/05/18 05:44:22;;;;;;;1.12;0.40;;;10.60;99.90;;;;;;1877450;76;21090;-76
2021/05/18 05:46:48;;;;;;;3.15;0.60;;;10.60;99.90;;;;;;1877465;76;21044;-76
2021/05/18 05:49:15;;;;;;;1.47;0.40;;;10.60;99.90;;;;;;1877333;76;21210;-75
2021/05/18 05:51:41;;;;;;;0.45;0.33;;;10.60;99.90;;;;;;1877462;76;21082;-76
2021/05/18 05:54:07;;;;;;;0.20;0.20;;;10.70;99.90;;;;;;1877351;76;21094;-75
2021/05/18 05:56:33;;;;;;;1.37;0.50;;;10.70;99.90;;;;;;1877296;76;21111;-75
2021/05/18 05:59:01;;;;;;;0.57;0.33;;;10.70;99.90;;;;;;1877341;76;21078;-76
2021/05/18 06:01:32;;;;;;;0.95;0.40;;;10.70;99.90;;;;;;1877332;76;21083;-75
2021/05/18 06:03:55;;;;;;;5.17;0.55;;;10.60;99.90;;;;;;1875795;76;21173;-75
2021/05/18 06:06:21;;;;;;;0.33;0.33;;;10.60;99.90;;;;;;1877300;76;21496;-76
2021/05/18 06:08:48;;;;;;;0.30;0.30;;;10.60;99.90;;;;;;1877328;76;21164;-75
2021/05/18 06:11:25;;;;;;;0.30;0.30;;;10.60;99.90;;;;;;1877260;76;21079;-74
2021/05/18 06:41:07;;;;;;;6.22;0.70;;;10.70;99.90;;;;;;1831074;76;21080;-76
2021/05/18 06:43:20;;;;;;;0.50;0.50;;;10.80;99.90;;;;;;1879571;76;21174;-75
2021/05/18 06:48:13;;;;;;;2.92;0.65;;;10.90;99.90;;;;;;1877237;76;21123;-76
2021/05/18 06:50:40;;;;;;;0.85;0.65;;;11.10;99.90;;;;;;1877964;76;21051;-75
2021/05/18 06:53:06;;;;;;;1.32;0.62;;;11.10;99.90;;;;;;1877856;76;21221;-76
2021/05/18 06:55:34;;;;;;;2.90;0.45;;;11.20;99.90;;;;;;1877737;76;21557;-76
2021/05/18 06:58:08;;;;;;;1.55;0.40;;;11.60;99.90;;;;;;1877678;76;21098;-75
2021/05/18 07:00:37;;;;;;;1.17;0.80;;;12.00;99.90;;;;;;1877608;76;21486;-75
2021/05/18 07:03:03;;;;;;;0.60;0.40;;;12.30;99.90;;;;;;1877559;76;21118;-76
2021/05/18 07:05:53;;;;;;;1.57;0.60;;;12.50;99.90;;;;;;1877692;76;21164;-75
2021/05/18 07:10:40;;;;;;;0.95;0.50;;;12.60;99.90;;;;;;1877554;76;21569;-77
2021/05/18 07:13:06;;;;;;;1.80;0.55;;;12.50;99.90;;;;;;1877795;76;21078;-76
2021/05/18 07:15:34;;;;;;;0.33;0.33;;;12.30;99.90;;;;;;1877800;76;21095;-78
2021/05/18 07:18:00;;;;;;;0.62;0.50;;;12.10;99.90;;;;;;1877175;76;21060;-76
2021/05/18 07:20:28;;;;;;;2.55;0.75;;;12.10;99.90;;;;;;1877464;76;21157;-75
2021/05/18 07:22:56;;;;;;;1.02;0.30;;;12.20;99.90;;;;;;1876877;75;21115;-76
2021/05/18 07:25:22;;;;;;;0.40;0.40;;;12.20;99.90;;;;;;1877293;76;21282;-75
2021/05/18 07:27:48;;;;;;;0.30;0.30;;;12.20;99.90;;;;;;1877509;76;21077;-75
2021/05/18 07:30:14;;;;;;;0.23;0.23;;;12.20;99.90;;;;;;1891788;76;21152;-75
2021/05/18 07:32:40;;;;;;;0.20;0.20;;;12.30;99.90;;;;;;1877494;76;21121;-75
2021/05/18 07:35:07;;;;;;;0.95;0.75;;;12.30;99.90;;;;;;1877428;76;21082;-75
2021/05/18 07:37:33;;;;;;;0.30;0.30;;;12.20;99.90;;;;;;1877027;76;21079;-75
2021/05/18 07:39:59;;;;;;;0.35;0.30;;;12.40;99.90;;;;;;1877349;76;21152;-76
2021/05/18 07:42:25;;;;;;;0.15;0.15;;;12.60;99.90;;;;;;1877613;76;21086;-76
2021/05/18 07:44:52;;;;;;;0.53;0.20;;;12.70;99.90;;;;;;1877326;76;21129;-76
2021/05/18 07:47:19;;;;;;;2.35;0.42;;;12.70;99.90;;;;;;1877452;76;21153;-76
2021/05/18 07:49:50;;;;;;;1.07;0.40;;;12.70;99.90;;;;;;1877466;76;21129;-77
2021/05/18 08:00:41;;;;;;;1.22;0.37;;;12.20;99.90;;;;;;1877740;76;21059;-76
2021/05/18 08:05:53;;;;;;;0.25;0.20;;;12.50;99.90;;;;;;1878621;76;21547;-76
2021/05/18 08:08:17;;;;;;;0.30;0.25;;;12.40;99.90;;;;;;1875855;76;21165;-76
2021/05/18 08:10:59;;;;;;;2.95;0.50;;;12.50;99.90;;;;;;1877512;76;21094;-77
2021/05/18 08:13:23;;;;;;;1.27;0.40;;;12.70;99.90;;;;;;1877488;76;21131;-75
2021/05/18 09:50:55;;;;;;;0.40;0.30;;;15.70;99.90;;;;;;1878749;76;21500;-76
2021/05/18 10:21:33;;;;;;;1.00;0.57;;;11.80;99.90;;;;;;1877504;76;21100;-77
2021/05/18 10:22:44;;;;;;;2.72;0.50;;;12.10;99.90;;;;;;1877563;76;21059;-75
2021/05/18 10:35:04;;;;;;;0.57;0.57;;;12.40;99.90;;;;;;1877385;76;21224;-78
2021/05/18 10:37:36;;;;;;;0.88;0.40;;;12.60;99.90;;;;;;1877245;75;21115;-74
2021/05/18 10:39:57;;;;;;;5.28;0.82;;;12.80;99.90;;;;;;1876490;76;21164;-74
2021/05/18 10:42:23;;;;;;;1.20;0.50;;;13.30;99.90;;;;;;1877364;76;21091;-75
2021/05/18 10:44:49;;;;;;;15.32;1.12;;;13.30;99.90;;;;;;1877471;76;21083;-75
2021/05/18 10:47:15;;;;;;;0.35;0.35;;;13.60;99.90;;;;;;1877449;76;21056;-74
2021/05/18 10:49:42;;;;;;;1.32;0.68;;;13.90;99.90;;;;;;1877660;76;21203;-75
2021/05/18 10:52:08;;;;;;;3.12;0.70;;;14.20;99.90;;;;;;1878018;76;21230;-75
2021/05/18 10:54:34;;;;;;;6.65;0.60;;;14.40;99.90;;;;;;1877898;76;21090;-75
2021/05/18 10:57:01;;;;;;;1.27;0.50;;;14.90;99.90;;;;;;1878262;76;21082;-75
2021/05/18 10:59:27;;;;;;;1.87;0.72;;;15.20;99.90;;;;;;1878310;76;21171;-73
2021/05/18 11:01:53;;;;;;;0.60;0.60;;;15.30;99.90;;;;;;1880936;76;21085;-73
2021/05/18 11:04:19;;;;;;;0.45;0.23;;;15.70;99.90;;;;;;1881006;76;21058;-75
2021/05/18 11:06:45;;;;;;;1.10;0.40;;;15.70;99.90;;;;;;1880859;76;21075;-73
2021/05/18 11:09:11;;;;;;;2.80;0.30;;;16.10;99.90;;;;;;1880741;76;21150;-74
2021/05/18 11:11:38;;;;;;;12.58;0.60;;;16.20;99.90;;;;;;1878504;76;21062;-75
2021/05/18 11:14:04;;;;;;;3.45;0.30;;;16.30;99.90;;;;;;1877766;76;21085;-75
2021/05/18 11:16:30;;;;;;;0.55;0.40;;;16.70;99.90;;;;;;1877909;76;21641;-75
2021/05/18 11:18:56;;;;;;;0.90;0.40;;;16.30;99.90;;;;;;1877864;76;21546;-75
2021/05/18 11:21:22;;;;;;;0.88;0.47;;;16.40;99.90;;;;;;1877894;76;21626;-76
2021/05/18 11:23:48;;;;;;;0.42;0.30;;;16.30;99.90;;;;;;1877686;76;21051;-76
2021/05/18 11:26:16;;;;;;;6.03;0.47;;;16.30;99.90;;;;;;1877920;76;21111;-76
2021/05/18 11:28:43;;;;;;;1.10;0.50;;;16.20;99.90;;;;;;1877718;76;21177;-76
2021/05/18 11:31:09;;;;;;;0.78;0.30;;;16.60;99.90;;;;;;1877948;76;21156;-76
2021/05/18 11:33:35;;;;;;;1.47;0.42;;;16.70;99.90;;;;;;1877702;76;21156;-76
2021/05/18 11:36:01;;;;;;;1.37;0.68;;;16.40;99.90;;;;;;1877813;76;21083;-77
2021/05/18 11:38:27;;;;;;;1.75;0.40;;;16.70;99.90;;;;;;1877816;76;21146;-76
2021/05/18 11:40:53;;;;;;;0.45;0.30;;;17.00;99.90;;;;;;1877782;76;21166;-77
2021/05/18 11:43:20;;;;;;;4.10;0.45;;;17.00;99.90;;;;;;1877732;76;21091;-78
2021/05/18 11:45:46;;;;;;;2.85;0.45;;;16.80;99.90;;;;;;1877711;76;21543;-78
2021/05/18 11:48:12;;;;;;;1.57;0.30;;;16.40;99.90;;;;;;1877748;76;21629;-78
2021/05/18 11:50:38;;;;;;;6.33;0.55;;;16.10;99.90;;;;;;1877874;76;21423;-78
2021/05/18 11:53:04;;;;;;;13.75;1.07;;;16.00;99.90;;;;;;1877668;76;21153;-78
2021/05/18 11:55:30;;;;;;;1.50;0.30;;;15.70;99.90;;;;;;1877783;76;21174;-78
2021/05/18 11:57:57;;;;;;;2.70;0.55;;;15.60;99.90;;;;;;1877760;76;21044;-78
2021/05/18 12:00:23;;;;;;;5.35;0.82;;;15.20;99.90;;;;;;1877824;76;21082;-78
2021/05/18 12:02:49;;;;;;;0.47;0.33;;;15.50;99.90;;;;;;1877909;76;21107;-78
2021/05/18 12:05:15;;;;;;;0.45;0.30;;;15.40;99.90;;;;;;1877875;76;21181;-78
2021/05/18 12:07:41;;;;;;;1.65;0.30;;;15.20;99.90;;;;;;1877765;76;21092;-78
2021/05/18 12:10:07;;;;;;;0.20;0.10;;;14.60;99.90;;;;;;1877869;76;21082;-77
2021/05/18 12:12:33;;;;;;;0.35;0.20;;;14.40;99.90;;;;;;1877739;76;21119;-77
2021/05/18 12:14:59;;;;;;;3.20;0.33;;;14.30;99.90;;;;;;1877698;76;21098;-76
2021/05/18 12:17:26;;;;;;;0.20;0.20;;;14.30;99.90;;;;;;1877902;76;21112;-77
2021/05/18 12:19:52;;;;;;;1.17;0.30;;;14.40;99.90;;;;;;1877901;76;21106;-77
2021/05/18 12:22:18;;;;;;;0.57;0.40;;;14.90;99.90;;;;;;1877717;76;21108;-76
2021/05/18 12:24:44;;;;;;;0.17;0.13;;;15.70;99.90;;;;;;1877855;76;21209;-77
2021/05/18 12:27:12;;;;;;;3.40;0.35;;;16.90;99.90;;;;;;1877834;76;21094;-77
2021/05/18 12:29:38;;;;;;;0.35;0.13;;;17.90;99.90;;;;;;1877737;76;21122;-77
2021/05/18 12:32:04;;;;;;;0.72;0.20;;;18.00;99.90;;;;;;1877687;76;21107;-77
2021/05/18 12:34:30;;;;;;;0.90;0.20;;;18.80;99.90;;;;;;1877946;76;21123;-79
2021/05/18 12:36:58;;;;;;;0.85;0.15;;;19.00;99.90;;;;;;1877803;76;21083;-78
2021/05/18 12:39:24;;;;;;;0.10;0.10;;;18.90;99.90;;;;;;1877717;76;21530;-78
2021/05/18 12:41:50;;;;;;;0.00;0.00;;;19.10;99.90;;;;;;1878162;76;21503;-80
2021/05/18 12:44:16;;;;;;;0.28;0.20;;;19.10;99.90;;;;;;1877806;76;21161;-80
2021/05/18 12:46:42;;;;;;;0.53;0.13;;;19.00;99.90;;;;;;1878038;76;21236;-80
2021/05/18 12:49:08;;;;;;;0.10;0.08;;;18.80;99.90;;;;;;1878232;76;21156;-80
2021/05/18 12:51:37;;;;;;;1.47;0.20;;;18.60;99.90;;;;;;1878085;76;21051;-78
2021/05/18 12:54:02;;;;;;;0.47;0.20;;;18.90;99.90;;;;;;1877763;76;21162;-78
2021/05/18 12:56:28;;;;;;;0.53;0.30;;;18.60;99.90;;;;;;1877618;76;21153;-76
2021/05/18 12:58:55;;;;;;;0.47;0.20;;;18.50;99.90;;;;;;1877754;76;21181;-78
2021/05/18 13:01:21;;;;;;;2.98;0.33;;;19.10;99.90;;;;;;1877682;76;21092;-78
2021/05/18 13:03:47;;;;;;;1.27;0.40;;;19.70;99.90;;;;;;1877631;76;21190;-77
2021/05/18 13:06:13;;;;;;;0.47;0.28;;;19.30;99.90;;;;;;1877803;76;21190;-77
2021/05/18 13:08:39;;;;;;;4.28;0.40;;;18.20;99.90;;;;;;1877566;76;21111;-77
2021/05/18 13:13:36;;;;;;;1.80;0.40;;;16.80;99.90;;;;;;1877538;76;21260;-77
2021/05/18 13:16:02;;;;;;;1.75;0.40;;;16.40;99.90;;;;;;1877676;76;21155;-77
2021/05/18 13:18:28;;;;;;;1.60;0.57;;;16.40;99.90;;;;;;1877523;76;21119;-78
2021/05/18 13:20:55;;;;;;;0.42;0.23;;;16.60;99.90;;;;;;1877626;76;21201;-78
2021/05/18 13:23:56;;;;;;;1.45;0.30;;;16.90;99.90;;;;;;1876281;76;21074;-77
2021/05/18 13:28:33;;;;;;;0.80;0.20;;;15.50;99.90;;;;;;1883549;76;21121;-76
2021/05/18 13:30:59;;;;;;;0.45;0.30;;;14.90;99.90;;;;;;1877646;76;21111;-77
2021/05/18 13:33:25;;;;;;;3.47;0.50;;;14.70;99.90;;;;;;1877691;76;21087;-77
2021/05/18 13:35:51;;;;;;;0.93;0.50;;;14.70;99.90;;;;;;1877692;76;21078;-77
2021/05/18 13:38:17;;;;;;;1.10;0.40;;;14.80;99.90;;;;;;1877789;76;21204;-77
2021/05/18 13:40:43;;;;;;;0.37;0.30;;;14.80;99.90;;;;;;1877591;76;21148;-77
2021/05/18 13:43:10;;;;;;;3.50;0.60;;;14.80;99.90;;;;;;1877788;76;21051;-77
2021/05/18 13:45:36;;;;;;;0.45;0.23;;;15.00;99.90;;;;;;1877523;76;21082;-77
2021/05/18 13:48:02;;;;;;;0.55;0.05;;;15.80;99.90;;;;;;1877819;76;21123;-77
2021/05/18 13:50:28;;;;;;;0.30;0.20;;;16.90;99.90;;;;;;1877688;76;21039;-77
2021/05/18 13:52:54;;;;;;;2.90;0.20;;;17.80;99.90;;;;;;1877858;76;21051;-78
2021/05/18 13:55:20;;;;;;;0.70;0.33;;;17.90;99.90;;;;;;1877626;76;21090;-77
2021/05/18 13:57:46;;;;;;;1.42;0.30;;;18.00;99.90;;;;;;1877709;76;21119;-77
2021/05/18 14:00:13;;;;;;;1.25;0.30;;;18.00;99.90;;;;;;1877608;76;21134;-78
2021/05/18 14:02:41;;;;;;;0.88;0.53;;;17.70;99.90;;;;;;1877702;76;21064;-78
2021/05/18 14:05:07;;;;;;;0.65;0.20;;;17.40;99.90;;;;;;1877471;76;21520;-78
2021/05/18 14:10:03;;;;;;;0.35;0.25;;;18.20;99.90;;;;;;1877331;76;21127;-77
2021/05/18 14:12:29;;;;;;;3.45;0.60;;;18.80;99.90;;;;;;1877585;76;21087;-77
2021/05/18 14:14:56;;;;;;;0.10;0.10;;;18.50;99.90;;;;;;1882646;76;21168;-77
2021/05/18 14:17:22;;;;;;;2.00;0.35;;;18.40;99.90;;;;;;1877490;76;21148;-76
2021/05/18 14:19:48;;;;;;;0.20;0.20;;;19.10;99.90;;;;;;1877262;76;21126;-77
2021/05/18 14:22:14;;;;;;;2.62;0.90;;;18.50;99.90;;;;;;1877649;76;21466;-76
2021/05/18 14:25:03;;;;;;;2.87;0.75;;;17.80;99.90;;;;;;1877796;76;21594;-76
2021/05/18 14:27:20;;;;;;;1.60;0.67;;;17.30;99.90;;;;;;1875999;76;21112;-77
2021/05/18 14:29:46;;;;;;;1.77;0.50;;;16.40;99.90;;;;;;1877782;76;21202;-77
2021/05/18 14:32:12;;;;;;;0.53;0.23;;;16.40;99.90;;;;;;1877914;76;21217;-76
2021/05/18 14:34:38;;;;;;;0.10;0.10;;;16.50;99.90;;;;;;1853385;76;21071;-76
2021/05/18 14:37:04;;;;;;;0.10;0.10;;;16.60;99.90;;;;;;1877764;76;21087;-76
2021/05/18 14:39:48;;;;;;;0.20;0.20;;;16.90;99.90;;;;;;1877867;76;21115;-76
2021/05/18 14:44:45;;;;;;;2.85;0.80;;;17.10;99.90;;;;;;1878969;76;21099;-76
2021/05/18 14:47:20;;;;;;;2.40;0.28;;;17.30;99.90;;;;;;1877885;76;21091;-77
2021/05/18 14:55:17;;;;;;;0.70;0.20;;;17.40;99.90;;;;;;1887042;76;21210;-76
2021/05/18 14:57:38;;;;;;;0.13;0.13;;;16.50;99.90;;;;;;1879057;75;21190;-79
2021/05/18 15:00:04;;;;;;;0.82;0.28;;;16.70;99.90;;;;;;1877744;76;21185;-78
2021/05/18 15:02:31;;;;;;;3.45;0.25;;;17.20;99.90;;;;;;1877719;76;21168;-79
2021/05/18 15:04:57;;;;;;;0.30;0.30;;;16.70;99.90;;;;;;1877751;76;21639;-78
2021/05/18 15:07:23;;;;;;;0.20;0.20;;;16.80;99.90;;;;;;1877702;76;21604;-79
2021/05/18 15:09:49;;;;;;;0.17;0.17;;;17.20;99.90;;;;;;1877752;76;21111;-79
2021/05/18 15:12:15;;;;;;;0.25;0.10;;;17.20;99.90;;;;;;1877713;76;21111;-79
2021/05/18 15:14:42;;;;;;;6.47;0.47;;;16.90;99.90;;;;;;1877771;76;21129;-79
2021/05/18 15:17:08;;;;;;;0.53;0.30;;;16.80;99.90;;;;;;1877771;76;21063;-79
2021/05/18 15:19:34;;;;;;;0.37;0.20;;;16.30;99.90;;;;;;1877796;76;21503;-79
2021/05/18 15:22:00;;;;;;;1.92;0.30;;;16.80;99.90;;;;;;1877756;76;21153;-78
2021/05/18 15:24:26;;;;;;;12.98;0.85;;;17.70;99.90;;;;;;1877711;76;21200;-79
2021/05/18 15:26:53;;;;;;;1.62;0.40;;;18.70;99.90;;;;;;1877754;76;21204;-79
2021/05/18 15:29:21;;;;;;;1.42;0.50;;;18.80;99.90;;;;;;1877651;76;21092;-79
2021/05/18 15:31:47;;;;;;;1.67;0.28;;;18.30;99.90;;;;;;1877689;76;21099;-79
2021/05/18 15:34:13;;;;;;;0.30;0.30;;;18.60;99.90;;;;;;1877634;76;21129;-79
2021/05/18 15:36:39;;;;;;;2.87;0.90;;;18.20;99.90;;;;;;1877727;76;21098;-79
2021/05/18 15:39:06;;;;;;;0.17;0.17;;;18.00;99.90;;;;;;1877705;76;21056;-79
2021/05/18 15:41:33;;;;;;;3.58;0.50;;;17.30;99.90;;;;;;1877777;76;21247;-78
2021/05/18 15:44:00;;;;;;;0.40;0.40;;;17.70;99.90;;;;;;1877717;76;21119;-79
2021/05/18 15:46:26;;;;;;;1.07;0.50;;;18.60;99.90;;;;;;1877696;76;21119;-79
2021/05/18 15:48:52;;;;;;;0.30;0.30;;;19.30;99.90;;;;;;1877858;76;21092;-80
2021/05/18 15:51:18;;;;;;;0.80;0.37;;;19.00;99.90;;;;;;1877728;76;21099;-79
2021/05/18 15:53:44;;;;;;;0.98;0.50;;;19.40;99.90;;;;;;1877526;76;21115;-79
2021/05/18 15:56:10;;;;;;;0.75;0.40;;;20.60;99.90;;;;;;1877841;76;21107;-78
2021/05/18 15:58:37;;;;;;;0.13;0.13;;;20.20;99.90;;;;;;1877582;76;21576;-79
2021/05/18 16:01:03;;;;;;;0.42;0.40;;;20.20;99.90;;;;;;1877742;76;21597;-79
2021/05/18 16:03:29;;;;;;;2.35;0.30;;;19.50;99.90;;;;;;1877587;76;21075;-79
2021/05/18 16:05:58;;;;;;;1.25;0.28;;;17.90;99.90;;;;;;1877787;76;21111;-78
2021/05/18 16:10:57;;;;;;;0.17;0.10;;;16.60;99.90;;;;;;1877739;76;21099;-79
2021/05/18 16:13:23;;;;;;;1.47;0.57;;;16.30;99.90;;;;;;1877763;76;21182;-78
2021/05/18 16:15:49;;;;;;;2.52;0.55;;;16.30;99.90;;;;;;1877537;76;21172;-79
2021/05/18 16:18:15;;;;;;;0.78;0.30;;;16.30;99.90;;;;;;1877675;76;21483;-79
2021/05/18 16:20:42;;;;;;;1.92;0.30;;;16.30;99.90;;;;;;1877623;76;21532;-79
2021/05/18 16:23:08;;;;;;;1.22;0.30;;;16.20;99.90;;;;;;1877772;76;21078;-83
2021/05/18 16:25:34;;;;;;;1.42;0.57;;;16.10;99.90;;;;;;1885206;75;21165;-85
2021/05/18 16:28:00;;;;;;;1.90;0.75;;;16.00;99.90;;;;;;1878153;76;21074;-79
2021/05/18 16:30:26;;;;;;;1.95;0.45;;;15.50;99.90;;;;;;1878176;76;21115;-78
2021/05/18 16:32:54;;;;;;;5.15;0.40;;;15.40;99.90;;;;;;1877942;76;21522;-78
2021/05/18 16:35:20;;;;;;;0.50;0.30;;;15.50;99.90;;;;;;1878251;76;21087;-78
2021/05/18 16:37:46;;;;;;;3.98;0.78;;;14.70;99.90;;;;;;1872914;76;21148;-77
2021/05/18 16:40:13;;;;;;;1.15;0.40;;;14.30;99.90;;;;;;1878058;76;21078;-79
2021/05/18 16:42:40;;;;;;;2.45;0.50;;;13.70;99.90;;;;;;1877839;76;21107;-76
2021/05/18 16:45:06;;;;;;;6.10;0.50;;;13.10;99.90;;;;;;1877734;76;21181;-75
2021/05/18 16:47:32;;;;;;;3.00;0.45;;;12.60;99.90;;;;;;1877733;76;21075;-75
2021/05/18 16:49:59;;;;;;;0.60;0.40;;;12.00;99.90;;;;;;1877696;76;21158;-75
2021/05/18 16:52:25;;;;;;;2.05;0.47;;;11.80;99.90;;;;;;1877715;76;21104;-75
2021/05/18 16:54:51;;;;;;;3.05;0.50;;;11.80;99.90;;;;;;1877817;76;21079;-74
2021/05/18 16:57:17;;;;;;;1.12;0.50;;;12.00;99.90;;;;;;1877885;76;21075;-75
2021/05/18 16:59:43;;;;;;;0.47;0.40;;;12.00;99.90;;;;;;1877808;76;21154;-75
2021/05/18 17:02:09;;;;;;;2.37;0.80;;;12.10;99.90;;;;;;1877827;76;21096;-75
2021/05/18 17:04:35;;;;;;;0.37;0.37;;;11.90;99.90;;;;;;1877770;76;21095;-75
2021/05/18 17:07:03;;;;;;;0.55;0.30;;;12.20;99.90;;;;;;1877746;76;21104;-75
2021/05/18 17:09:29;;;;;;;2.22;0.45;;;12.30;99.90;;;;;;1877637;76;21123;-75
2021/05/18 17:11:55;;;;;;;0.85;0.55;;;12.30;99.90;;;;;;1877685;76;21106;-75
2021/05/18 17:14:23;;;;;;;4.10;0.70;;;12.30;99.90;;;;;;1877639;76;21144;-75
2021/05/18 17:16:49;;;;;;;0.78;0.37;;;12.30;99.90;;;;;;1877701;76;21507;-75
2021/05/18 17:19:15;;;;;;;1.62;0.70;;;12.40;99.90;;;;;;1877647;76;21589;-75